sensor_id;sensor_type;location;lat;lon;timestamp;noise_LAeq;noise_LA_min;noise_LA_max;noise_LA01;noise_LA95
78074;Laerm;67283;50.960;13.856;2023-03-12T00:00:00;60.33;37.44;79.13;;
78074;Laerm;67283;50.960;13.856;2023-03-12T00:02:29;38.93;37.02;41.28;;
78074;Laerm;67283;50.960;13.856;2023-03-12T00:04:57;38.97;37.28;40.54;;
78074;Laerm;67283;50.960;13.856;2023-03-12T00:07:25;38.88;37.10;40.67;;
78074;Laerm;67283;50.960;13.856;2023-03-12T00:09:53;39.03;37.23;40.78;;
78074;Laerm;67283;50.960;13.856;2023-03-12T00:12:21;38.94;36.89;40.54;;
78074;Laerm;67283;50.960;13.856;2023-03-12T00:14:52;53.19;37.06;71.82;;
78074;Laerm;67283;50.960;13.856;2023-03-12T00:17:20;38.93;36.84;44.28;;
78074;Laerm;67283;50.960;13.856;2023-03-12T00:19:50;38.94;37.20;41.05;;
78074;Laerm;67283;50.960;13.856;2023-03-12T00:22:18;58.67;36.68;78.52;;
78074;Laerm;67283;50.960;13.856;2023-03-12T00:24:48;38.88;37.02;40.78;;
78074;Laerm;67283;50.960;13.856;2023-03-12T00:27:16;38.92;36.99;40.64;;
78074;Laerm;67283;50.960;13.856;2023-03-12T00:29:44;39.02;37.11;41.31;;
78074;Laerm;67283;50.960;13.856;2023-03-12T00:32:15;53.48;36.95;69.97;;
78074;Laerm;67283;50.960;13.856;2023-03-12T00:34:48;38.92;37.09;40.52;;
78074;Laerm;67283;50.960;13.856;2023-03-12T00:37:17;38.90;36.72;40.79;;
78074;Laerm;67283;50.960;13.856;2023-03-12T00:39:45;53.92;37.09;70.22;;
78074;Laerm;67283;50.960;13.856;2023-03-12T00:42:13;47.56;37.49;62.27;;
78074;Laerm;67283;50.960;13.856;2023-03-12T00:44:41;38.87;36.84;41.11;;
78074;Laerm;67283;50.960;13.856;2023-03-12T00:47:09;38.82;36.96;40.41;;
78074;Laerm;67283;50.960;13.856;2023-03-12T00:49:40;38.80;37.00;40.70;;
78074;Laerm;67283;50.960;13.856;2023-03-12T00:52:08;38.91;36.73;41.76;;
78074;Laerm;67283;50.960;13.856;2023-03-12T00:54:36;38.81;36.91;40.41;;
78074;Laerm;67283;50.960;13.856;2023-03-12T00:57:05;38.85;37.09;40.39;;
78074;Laerm;67283;50.960;13.856;2023-03-12T00:59:33;38.89;36.76;40.67;;
78074;Laerm;67283;50.960;13.856;2023-03-12T01:02:04;46.24;36.89;68.12;;
78074;Laerm;67283;50.960;13.856;2023-03-12T01:04:32;46.24;36.89;68.12;;
78074;Laerm;67283;50.960;13.856;2023-03-12T01:07:03;48.53;37.19;70.78;;
78074;Laerm;67283;50.960;13.856;2023-03-12T01:09:31;49.38;37.55;66.22;;
78074;Laerm;67283;50.960;13.856;2023-03-12T01:11:59;39.18;37.34;41.65;;
78074;Laerm;67283;50.960;13.856;2023-03-12T01:14:27;42.93;37.61;57.74;;
78074;Laerm;67283;50.960;13.856;2023-03-12T01:16:55;39.93;37.75;61.96;;
78074;Laerm;67283;50.960;13.856;2023-03-12T01:19:23;39.30;37.38;40.98;;
78074;Laerm;67283;50.960;13.856;2023-03-12T01:21:51;39.33;37.34;41.33;;
78074;Laerm;67283;50.960;13.856;2023-03-12T01:24:22;46.10;37.49;60.55;;
78074;Laerm;67283;50.960;13.856;2023-03-12T01:26:50;39.53;37.06;42.95;;
78074;Laerm;67283;50.960;13.856;2023-03-12T01:29:18;39.32;37.20;41.05;;
78074;Laerm;67283;50.960;13.856;2023-03-12T01:31:47;40.14;37.45;62.54;;
78074;Laerm;67283;50.960;13.856;2023-03-12T01:34:16;57.77;37.65;75.47;;
78074;Laerm;67283;50.960;13.856;2023-03-12T01:36:44;39.30;37.43;41.40;;
78074;Laerm;67283;50.960;13.856;2023-03-12T01:39:12;55.95;37.68;72.20;;
78074;Laerm;67283;50.960;13.856;2023-03-12T01:41:43;39.29;37.47;43.24;;
78074;Laerm;67283;50.960;13.856;2023-03-12T01:44:11;39.53;37.77;41.32;;
78074;Laerm;67283;50.960;13.856;2023-03-12T01:46:40;39.42;37.51;41.10;;
78074;Laerm;67283;50.960;13.856;2023-03-12T01:49:15;47.16;37.68;64.12;;
78074;Laerm;67283;50.960;13.856;2023-03-12T01:51:45;39.44;37.49;41.37;;
78074;Laerm;67283;50.960;13.856;2023-03-12T01:54:14;39.47;37.50;41.22;;
78074;Laerm;67283;50.960;13.856;2023-03-12T01:56:45;39.38;37.52;40.89;;
78074;Laerm;67283;50.960;13.856;2023-03-12T01:59:14;39.39;37.35;41.23;;
78074;Laerm;67283;50.960;13.856;2023-03-12T02:01:44;39.38;37.53;41.14;;
78074;Laerm;67283;50.960;13.856;2023-03-12T02:04:13;39.34;37.42;41.10;;
78074;Laerm;67283;50.960;13.856;2023-03-12T02:06:44;39.39;37.22;41.14;;
78074;Laerm;67283;50.960;13.856;2023-03-12T02:09:13;39.31;37.56;44.31;;
78074;Laerm;67283;50.960;13.856;2023-03-12T02:11:46;39.28;37.40;42.02;;
78074;Laerm;67283;50.960;13.856;2023-03-12T02:14:14;51.35;37.68;70.07;;
78074;Laerm;67283;50.960;13.856;2023-03-12T02:16:43;39.16;37.02;40.83;;
78074;Laerm;67283;50.960;13.856;2023-03-12T02:19:14;39.25;37.46;40.98;;
78074;Laerm;67283;50.960;13.856;2023-03-12T02:21:44;39.25;37.46;40.98;;
78074;Laerm;67283;50.960;13.856;2023-03-12T02:24:13;39.28;37.51;40.94;;
78074;Laerm;67283;50.960;13.856;2023-03-12T02:26:46;39.17;36.92;40.80;;
78074;Laerm;67283;50.960;13.856;2023-03-12T02:29:15;39.17;36.92;40.80;;
78074;Laerm;67283;50.960;13.856;2023-03-12T02:31:43;39.28;37.21;40.99;;
78074;Laerm;67283;50.960;13.856;2023-03-12T02:34:13;39.35;37.52;41.16;;
78074;Laerm;67283;50.960;13.856;2023-03-12T02:36:42;39.32;37.54;41.27;;
78074;Laerm;67283;50.960;13.856;2023-03-12T02:39:10;39.76;37.64;45.83;;
78074;Laerm;67283;50.960;13.856;2023-03-12T02:41:38;46.56;37.75;65.47;;
78074;Laerm;67283;50.960;13.856;2023-03-12T02:44:12;54.99;37.64;69.92;;
78074;Laerm;67283;50.960;13.856;2023-03-12T02:46:42;39.40;37.74;41.00;;
78074;Laerm;67283;50.960;13.856;2023-03-12T02:49:12;39.39;37.50;41.03;;
78074;Laerm;67283;50.960;13.856;2023-03-12T02:51:40;39.42;37.65;41.22;;
78074;Laerm;67283;50.960;13.856;2023-03-12T02:54:09;39.33;37.41;41.04;;
78074;Laerm;67283;50.960;13.856;2023-03-12T02:56:38;39.52;37.70;41.09;;
78074;Laerm;67283;50.960;13.856;2023-03-12T02:59:07;50.19;37.59;66.73;;
78074;Laerm;67283;50.960;13.856;2023-03-12T03:01:38;39.47;37.60;41.32;;
78074;Laerm;67283;50.960;13.856;2023-03-12T03:04:07;40.36;37.67;46.60;;
78074;Laerm;67283;50.960;13.856;2023-03-12T03:06:36;39.55;37.61;41.71;;
78074;Laerm;67283;50.960;13.856;2023-03-12T03:09:05;39.54;37.26;41.24;;
78074;Laerm;67283;50.960;13.856;2023-03-12T03:11:34;52.27;37.90;69.79;;
78074;Laerm;67283;50.960;13.856;2023-03-12T03:14:02;39.51;37.77;41.00;;
78074;Laerm;67283;50.960;13.856;2023-03-12T03:16:31;39.59;37.72;41.24;;
78074;Laerm;67283;50.960;13.856;2023-03-12T03:19:02;39.56;37.48;47.92;;
78074;Laerm;67283;50.960;13.856;2023-03-12T03:21:30;39.56;37.67;41.27;;
78074;Laerm;67283;50.960;13.856;2023-03-12T03:23:59;53.34;37.83;69.84;;
78074;Laerm;67283;50.960;13.856;2023-03-12T03:26:27;39.77;37.60;45.70;;
78074;Laerm;67283;50.960;13.856;2023-03-12T03:28:55;39.55;37.41;41.47;;
78074;Laerm;67283;50.960;13.856;2023-03-12T03:31:23;39.61;37.89;41.60;;
78074;Laerm;67283;50.960;13.856;2023-03-12T03:33:51;39.57;37.85;41.31;;
78074;Laerm;67283;50.960;13.856;2023-03-12T03:36:22;39.59;37.86;41.41;;
78074;Laerm;67283;50.960;13.856;2023-03-12T03:38:50;39.62;37.67;41.23;;
78074;Laerm;67283;50.960;13.856;2023-03-12T03:41:18;39.61;37.65;41.51;;
78074;Laerm;67283;50.960;13.856;2023-03-12T03:43:47;39.52;37.48;41.83;;
78074;Laerm;67283;50.960;13.856;2023-03-12T03:46:15;52.51;37.79;69.29;;
78074;Laerm;67283;50.960;13.856;2023-03-12T03:48:44;52.51;37.79;69.29;;
78074;Laerm;67283;50.960;13.856;2023-03-12T03:51:12;50.10;37.83;71.27;;
78074;Laerm;67283;50.960;13.856;2023-03-12T03:53:42;41.36;37.58;52.76;;
78074;Laerm;67283;50.960;13.856;2023-03-12T03:56:12;39.66;38.01;42.06;;
78074;Laerm;67283;50.960;13.856;2023-03-12T03:58:40;53.05;37.69;70.37;;
78074;Laerm;67283;50.960;13.856;2023-03-12T04:01:09;39.55;37.72;41.21;;
78074;Laerm;67283;50.960;13.856;2023-03-12T04:03:37;39.93;37.87;46.38;;
78074;Laerm;67283;50.960;13.856;2023-03-12T04:06:05;50.04;38.10;67.77;;
78074;Laerm;67283;50.960;13.856;2023-03-12T04:08:34;39.65;37.67;41.48;;
78074;Laerm;67283;50.960;13.856;2023-03-12T04:11:09;41.84;37.70;57.85;;
78074;Laerm;67283;50.960;13.856;2023-03-12T04:13:37;49.14;37.55;66.93;;
78074;Laerm;67283;50.960;13.856;2023-03-12T04:16:05;39.49;37.36;52.02;;
78074;Laerm;67283;50.960;13.856;2023-03-12T04:18:33;39.54;37.37;53.73;;
78074;Laerm;67283;50.960;13.856;2023-03-12T04:21:03;41.41;37.15;60.43;;
78074;Laerm;67283;50.960;13.856;2023-03-12T04:23:32;43.06;37.58;63.03;;
78074;Laerm;67283;50.960;13.856;2023-03-12T04:26:00;50.24;37.70;65.35;;
78074;Laerm;67283;50.960;13.856;2023-03-12T04:28:31;55.35;37.83;70.95;;
78074;Laerm;67283;50.960;13.856;2023-03-12T04:31:00;50.95;37.73;65.92;;
78074;Laerm;67283;50.960;13.856;2023-03-12T04:33:29;48.49;37.78;63.58;;
78074;Laerm;67283;50.960;13.856;2023-03-12T04:35:57;48.49;37.78;63.58;;
78074;Laerm;67283;50.960;13.856;2023-03-12T04:38:26;51.19;37.99;65.32;;
78074;Laerm;67283;50.960;13.856;2023-03-12T04:40:57;54.03;38.33;69.33;;
78074;Laerm;67283;50.960;13.856;2023-03-12T04:43:26;48.14;38.15;62.51;;
78074;Laerm;67283;50.960;13.856;2023-03-12T04:45:57;45.63;37.88;64.29;;
78074;Laerm;67283;50.960;13.856;2023-03-12T04:48:25;45.86;38.20;58.79;;
78074;Laerm;67283;50.960;13.856;2023-03-12T04:50:54;46.20;38.26;61.47;;
78074;Laerm;67283;50.960;13.856;2023-03-12T04:53:22;48.71;38.21;74.68;;
78074;Laerm;67283;50.960;13.856;2023-03-12T04:55:51;53.90;38.40;76.58;;
78074;Laerm;67283;50.960;13.856;2023-03-12T04:58:19;49.23;37.95;71.30;;
78074;Laerm;67283;50.960;13.856;2023-03-12T05:00:48;41.61;37.84;54.46;;
78074;Laerm;67283;50.960;13.856;2023-03-12T05:03:19;41.61;37.84;54.46;;
78074;Laerm;67283;50.960;13.856;2023-03-12T05:05:47;42.09;37.73;63.04;;
78074;Laerm;67283;50.960;13.856;2023-03-12T05:08:15;41.70;37.78;63.41;;
78074;Laerm;67283;50.960;13.856;2023-03-12T05:10:43;42.74;38.00;62.21;;
78074;Laerm;67283;50.960;13.856;2023-03-12T05:13:12;41.79;37.84;56.44;;
78074;Laerm;67283;50.960;13.856;2023-03-12T05:15:41;54.79;38.09;71.76;;
78074;Laerm;67283;50.960;13.856;2023-03-12T05:18:09;40.30;37.76;46.85;;
78074;Laerm;67283;50.960;13.856;2023-03-12T05:20:39;51.27;38.04;68.86;;
78074;Laerm;67283;50.960;13.856;2023-03-12T05:23:07;43.02;38.05;54.14;;
78074;Laerm;67283;50.960;13.856;2023-03-12T05:25:37;46.81;38.52;69.45;;
78074;Laerm;67283;50.960;13.856;2023-03-12T05:28:05;41.95;38.39;54.02;;
78074;Laerm;67283;50.960;13.856;2023-03-12T05:30:34;54.04;38.78;71.45;;
78074;Laerm;67283;50.960;13.856;2023-03-12T05:33:02;41.61;38.14;64.89;;
78074;Laerm;67283;50.960;13.856;2023-03-12T05:35:30;50.59;38.05;68.61;;
78074;Laerm;67283;50.960;13.856;2023-03-12T05:38:00;57.69;38.23;74.22;;
78074;Laerm;67283;50.960;13.856;2023-03-12T05:40:29;41.19;37.76;51.90;;
78074;Laerm;67283;50.960;13.856;2023-03-12T05:42:57;41.47;38.18;53.59;;
78074;Laerm;67283;50.960;13.856;2023-03-12T05:45:25;41.16;38.08;53.15;;
78074;Laerm;67283;50.960;13.856;2023-03-12T05:47:53;42.34;37.91;53.41;;
78074;Laerm;67283;50.960;13.856;2023-03-12T05:50:22;61.52;38.59;79.20;;
78074;Laerm;67283;50.960;13.856;2023-03-12T05:52:50;51.95;38.57;70.25;;
78074;Laerm;67283;50.960;13.856;2023-03-12T05:55:21;50.18;38.39;66.40;;
78074;Laerm;67283;50.960;13.856;2023-03-12T05:57:49;49.74;38.55;67.64;;
78074;Laerm;67283;50.960;13.856;2023-03-12T06:00:18;53.75;38.07;70.69;;
78074;Laerm;67283;50.960;13.856;2023-03-12T06:02:46;56.98;38.57;73.29;;
78074;Laerm;67283;50.960;13.856;2023-03-12T06:05:14;55.71;37.98;74.61;;
78074;Laerm;67283;50.960;13.856;2023-03-12T06:07:42;55.46;38.17;73.58;;
78074;Laerm;67283;50.960;13.856;2023-03-12T06:10:11;58.85;39.05;73.27;;
78074;Laerm;67283;50.960;13.856;2023-03-12T06:12:42;51.03;38.74;68.42;;
78074;Laerm;67283;50.960;13.856;2023-03-12T06:15:10;53.02;38.47;70.43;;
78074;Laerm;67283;50.960;13.856;2023-03-12T06:17:38;53.34;38.33;70.72;;
78074;Laerm;67283;50.960;13.856;2023-03-12T06:20:07;54.78;38.57;70.81;;
78074;Laerm;67283;50.960;13.856;2023-03-12T06:22:35;48.97;38.47;65.30;;
78074;Laerm;67283;50.960;13.856;2023-03-12T06:25:03;42.24;38.08;56.90;;
78074;Laerm;67283;50.960;13.856;2023-03-12T06:27:32;55.94;38.69;71.00;;
78074;Laerm;67283;50.960;13.856;2023-03-12T06:30:03;46.43;38.72;62.02;;
78074;Laerm;67283;50.960;13.856;2023-03-12T06:32:31;43.15;38.15;58.49;;
78074;Laerm;67283;50.960;13.856;2023-03-12T06:35:00;50.11;38.24;67.94;;
78074;Laerm;67283;50.960;13.856;2023-03-12T06:37:28;50.11;38.24;67.94;;
78074;Laerm;67283;50.960;13.856;2023-03-12T06:39:57;41.06;37.99;59.43;;
78074;Laerm;67283;50.960;13.856;2023-03-12T06:42:25;41.74;38.10;60.15;;
78074;Laerm;67283;50.960;13.856;2023-03-12T06:44:53;41.23;38.17;59.93;;
78074;Laerm;67283;50.960;13.856;2023-03-12T06:47:24;54.79;38.01;70.32;;
78074;Laerm;67283;50.960;13.856;2023-03-12T06:49:52;41.87;37.65;53.80;;
78074;Laerm;67283;50.960;13.856;2023-03-12T06:52:20;43.91;38.24;66.39;;
78074;Laerm;67283;50.960;13.856;2023-03-12T06:54:48;41.21;37.81;59.16;;
78074;Laerm;67283;50.960;13.856;2023-03-12T06:57:16;50.55;37.92;68.77;;
78074;Laerm;67283;50.960;13.856;2023-03-12T06:59:45;41.69;37.81;54.13;;
78074;Laerm;67283;50.960;13.856;2023-03-12T07:02:13;48.67;38.00;66.51;;
78074;Laerm;67283;50.960;13.856;2023-03-12T07:04:44;41.45;37.26;53.12;;
78074;Laerm;67283;50.960;13.856;2023-03-12T07:07:12;52.30;37.90;69.23;;
78074;Laerm;67283;50.960;13.856;2023-03-12T07:09:41;52.30;37.90;69.23;;
78074;Laerm;67283;50.960;13.856;2023-03-12T07:12:09;51.11;37.57;69.35;;
78074;Laerm;67283;50.960;13.856;2023-03-12T07:14:37;54.67;37.67;71.92;;
78074;Laerm;67283;50.960;13.856;2023-03-12T07:17:05;51.33;37.99;67.46;;
78074;Laerm;67283;50.960;13.856;2023-03-12T07:19:33;54.87;37.77;73.74;;
78074;Laerm;67283;50.960;13.856;2023-03-12T07:22:04;52.87;37.81;71.71;;
78074;Laerm;67283;50.960;13.856;2023-03-12T07:24:32;51.35;37.73;69.20;;
78074;Laerm;67283;50.960;13.856;2023-03-12T07:27:00;47.19;38.17;62.04;;
78074;Laerm;67283;50.960;13.856;2023-03-12T07:29:28;57.04;38.22;73.25;;
78074;Laerm;67283;50.960;13.856;2023-03-12T07:31:56;53.45;38.05;70.36;;
78074;Laerm;67283;50.960;13.856;2023-03-12T07:34:24;52.88;37.56;68.36;;
78074;Laerm;67283;50.960;13.856;2023-03-12T07:36:53;52.98;37.83;70.51;;
78074;Laerm;67283;50.960;13.856;2023-03-12T07:39:24;49.61;37.74;65.71;;
78074;Laerm;67283;50.960;13.856;2023-03-12T07:41:53;44.79;37.16;65.62;;
78074;Laerm;67283;50.960;13.856;2023-03-12T07:44:21;54.96;37.44;71.50;;
78074;Laerm;67283;50.960;13.856;2023-03-12T07:46:50;49.16;38.32;69.30;;
78074;Laerm;67283;50.960;13.856;2023-03-12T07:49:18;55.89;37.39;71.19;;
78074;Laerm;67283;50.960;13.856;2023-03-12T07:51:46;56.16;37.49;71.56;;
78074;Laerm;67283;50.960;13.856;2023-03-12T07:54:14;45.31;37.49;61.56;;
78074;Laerm;67283;50.960;13.856;2023-03-12T07:56:45;54.07;37.30;69.22;;
78074;Laerm;67283;50.960;13.856;2023-03-12T07:59:13;57.75;38.64;76.97;;
78074;Laerm;67283;50.960;13.856;2023-03-12T08:01:43;50.41;37.29;67.36;;
78074;Laerm;67283;50.960;13.856;2023-03-12T08:04:11;48.90;36.87;66.54;;
78074;Laerm;67283;50.960;13.856;2023-03-12T08:06:39;53.97;37.57;68.61;;
78074;Laerm;67283;50.960;13.856;2023-03-12T08:09:08;55.28;37.14;71.29;;
78074;Laerm;67283;50.960;13.856;2023-03-12T08:11:36;53.39;36.72;69.09;;
78074;Laerm;67283;50.960;13.856;2023-03-12T08:14:07;51.26;36.99;69.60;;
78074;Laerm;67283;50.960;13.856;2023-03-12T08:16:35;55.30;37.05;72.99;;
78074;Laerm;67283;50.960;13.856;2023-03-12T08:19:03;57.00;37.15;69.90;;
78074;Laerm;67283;50.960;13.856;2023-03-12T08:21:31;53.55;37.23;69.40;;
78074;Laerm;67283;50.960;13.856;2023-03-12T08:23:59;56.45;37.05;71.64;;
78074;Laerm;67283;50.960;13.856;2023-03-12T08:26:27;56.45;37.05;71.64;;
78074;Laerm;67283;50.960;13.856;2023-03-12T08:28:55;56.61;36.11;72.71;;
78074;Laerm;67283;50.960;13.856;2023-03-12T08:31:27;56.87;37.77;70.74;;
78074;Laerm;67283;50.960;13.856;2023-03-12T08:33:55;57.38;37.23;71.36;;
78074;Laerm;67283;50.960;13.856;2023-03-12T08:36:23;58.29;37.62;73.60;;
78074;Laerm;67283;50.960;13.856;2023-03-12T08:38:51;55.27;37.25;70.78;;
78074;Laerm;67283;50.960;13.856;2023-03-12T08:41:19;57.52;37.45;73.60;;
78074;Laerm;67283;50.960;13.856;2023-03-12T08:43:48;54.08;37.12;72.11;;
78074;Laerm;67283;50.960;13.856;2023-03-12T08:46:16;52.52;36.29;64.78;;
78074;Laerm;67283;50.960;13.856;2023-03-12T08:48:47;58.07;36.81;72.09;;
78074;Laerm;67283;50.960;13.856;2023-03-12T08:51:15;60.52;38.49;73.88;;
78074;Laerm;67283;50.960;13.856;2023-03-12T08:53:43;60.12;38.41;74.11;;
78074;Laerm;67283;50.960;13.856;2023-03-12T08:56:11;57.28;37.91;70.65;;
78074;Laerm;67283;50.960;13.856;2023-03-12T08:58:40;58.84;37.34;70.82;;
78074;Laerm;67283;50.960;13.856;2023-03-12T09:01:08;57.90;36.38;70.94;;
78074;Laerm;67283;50.960;13.856;2023-03-12T09:03:37;57.53;37.11;73.56;;
78074;Laerm;67283;50.960;13.856;2023-03-12T09:06:09;54.87;37.21;67.13;;
78074;Laerm;67283;50.960;13.856;2023-03-12T09:08:40;58.71;37.47;73.05;;
78074;Laerm;67283;50.960;13.856;2023-03-12T09:11:09;58.68;37.55;70.88;;
78074;Laerm;67283;50.960;13.856;2023-03-12T09:13:37;60.58;37.95;73.93;;
78074;Laerm;67283;50.960;13.856;2023-03-12T09:16:06;58.31;37.34;73.14;;
78074;Laerm;67283;50.960;13.856;2023-03-12T09:18:34;56.79;37.04;72.06;;
78074;Laerm;67283;50.960;13.856;2023-03-12T09:21:03;54.62;36.96;69.48;;
78074;Laerm;67283;50.960;13.856;2023-03-12T09:23:33;57.54;36.65;70.62;;
78074;Laerm;67283;50.960;13.856;2023-03-12T09:26:02;56.00;37.42;71.52;;
78074;Laerm;67283;50.960;13.856;2023-03-12T09:28:30;62.75;37.69;87.00;;
78074;Laerm;67283;50.960;13.856;2023-03-12T09:30:59;55.14;37.83;68.90;;
78074;Laerm;67283;50.960;13.856;2023-03-12T09:33:28;55.60;37.93;69.90;;
78074;Laerm;67283;50.960;13.856;2023-03-12T09:35:56;59.64;37.84;73.46;;
78074;Laerm;67283;50.960;13.856;2023-03-12T09:38:24;44.53;37.40;65.57;;
78074;Laerm;67283;50.960;13.856;2023-03-12T09:40:55;58.64;37.59;71.16;;
78074;Laerm;67283;50.960;13.856;2023-03-12T09:43:24;56.48;37.68;69.17;;
78074;Laerm;67283;50.960;13.856;2023-03-12T09:45:56;56.14;37.16;70.75;;
78074;Laerm;67283;50.960;13.856;2023-03-12T09:48:27;55.81;37.28;70.94;;
78074;Laerm;67283;50.960;13.856;2023-03-12T09:50:59;56.60;37.15;71.91;;
78074;Laerm;67283;50.960;13.856;2023-03-12T09:53:30;59.13;38.82;70.05;;
78074;Laerm;67283;50.960;13.856;2023-03-12T09:56:03;55.19;37.51;67.97;;
78074;Laerm;67283;50.960;13.856;2023-03-12T09:58:34;58.44;37.62;72.55;;
78074;Laerm;67283;50.960;13.856;2023-03-12T10:01:06;55.36;36.82;72.78;;
78074;Laerm;67283;50.960;13.856;2023-03-12T10:03:41;50.00;36.82;69.47;;
78074;Laerm;67283;50.960;13.856;2023-03-12T10:06:15;56.83;37.19;71.89;;
78074;Laerm;67283;50.960;13.856;2023-03-12T10:08:47;55.83;37.92;69.01;;
78074;Laerm;67283;50.960;13.856;2023-03-12T10:11:23;57.26;37.95;72.63;;
78074;Laerm;67283;50.960;13.856;2023-03-12T10:13:57;53.06;37.53;69.03;;
78074;Laerm;67283;50.960;13.856;2023-03-12T10:16:31;59.36;37.97;71.40;;
78074;Laerm;67283;50.960;13.856;2023-03-12T10:19:04;58.35;37.92;71.40;;
78074;Laerm;67283;50.960;13.856;2023-03-12T10:21:38;56.72;37.62;74.19;;
78074;Laerm;67283;50.960;13.856;2023-03-12T10:24:15;55.18;37.32;70.22;;
78074;Laerm;67283;50.960;13.856;2023-03-12T10:26:50;56.30;37.42;70.35;;
78074;Laerm;67283;50.960;13.856;2023-03-12T10:29:20;51.87;37.28;69.16;;
78074;Laerm;67283;50.960;13.856;2023-03-12T10:31:50;58.86;37.16;70.93;;
78074;Laerm;67283;50.960;13.856;2023-03-12T10:34:22;60.33;39.36;71.18;;
78074;Laerm;67283;50.960;13.856;2023-03-12T10:36:52;59.66;38.66;71.20;;
78074;Laerm;67283;50.960;13.856;2023-03-12T10:39:21;55.40;36.95;70.09;;
78074;Laerm;67283;50.960;13.856;2023-03-12T10:41:52;57.83;37.44;78.19;;
78074;Laerm;67283;50.960;13.856;2023-03-12T10:44:21;60.04;37.75;72.92;;
78074;Laerm;67283;50.960;13.856;2023-03-12T10:46:51;59.19;37.94;74.41;;
78074;Laerm;67283;50.960;13.856;2023-03-12T10:49:24;59.54;37.76;75.04;;
78074;Laerm;67283;50.960;13.856;2023-03-12T10:51:53;57.69;37.63;71.07;;
78074;Laerm;67283;50.960;13.856;2023-03-12T10:54:25;54.61;36.65;68.91;;
78074;Laerm;67283;50.960;13.856;2023-03-12T10:56:56;50.73;36.89;69.18;;
78074;Laerm;67283;50.960;13.856;2023-03-12T10:59:27;61.59;36.89;76.96;;
78074;Laerm;67283;50.960;13.856;2023-03-12T11:01:55;49.94;36.15;65.08;;
78074;Laerm;67283;50.960;13.856;2023-03-12T11:04:24;58.65;37.53;71.49;;
78074;Laerm;67283;50.960;13.856;2023-03-12T11:09:45;60.81;37.49;72.32;;
78074;Laerm;67283;50.960;13.856;2023-03-12T11:12:32;57.68;36.94;74.29;;
78074;Laerm;67283;50.960;13.856;2023-03-12T11:15:15;58.49;37.42;73.77;;
78074;Laerm;67283;50.960;13.856;2023-03-12T11:17:45;56.07;36.90;71.21;;
78074;Laerm;67283;50.960;13.856;2023-03-12T11:20:26;55.66;37.09;69.62;;
78074;Laerm;67283;50.960;13.856;2023-03-12T11:22:55;60.31;37.10;73.33;;
78074;Laerm;67283;50.960;13.856;2023-03-12T11:25:24;60.31;37.10;73.33;;
78074;Laerm;67283;50.960;13.856;2023-03-12T11:27:55;60.31;37.10;73.33;;
78074;Laerm;67283;50.960;13.856;2023-03-12T11:30:28;57.71;36.53;72.65;;
78074;Laerm;67283;50.960;13.856;2023-03-12T11:33:00;57.82;36.87;71.41;;
78074;Laerm;67283;50.960;13.856;2023-03-12T11:35:30;59.30;37.29;75.17;;
78074;Laerm;67283;50.960;13.856;2023-03-12T11:38:05;54.89;37.13;71.78;;
78074;Laerm;67283;50.960;13.856;2023-03-12T11:40:40;56.68;36.78;72.48;;
78074;Laerm;67283;50.960;13.856;2023-03-12T11:43:28;57.49;36.90;71.53;;
78074;Laerm;67283;50.960;13.856;2023-03-12T11:46:06;59.33;36.46;72.37;;
78074;Laerm;67283;50.960;13.856;2023-03-12T11:48:36;56.05;36.98;72.00;;
78074;Laerm;67283;50.960;13.856;2023-03-12T11:51:11;59.92;41.09;70.70;;
78074;Laerm;67283;50.960;13.856;2023-03-12T11:53:48;56.73;37.19;69.81;;
78074;Laerm;67283;50.960;13.856;2023-03-12T11:56:22;58.64;37.70;71.86;;
78074;Laerm;67283;50.960;13.856;2023-03-12T11:58:56;58.84;37.66;71.28;;
78074;Laerm;67283;50.960;13.856;2023-03-12T12:01:30;57.74;36.44;70.81;;
78074;Laerm;67283;50.960;13.856;2023-03-12T12:04:20;56.99;36.59;71.24;;
78074;Laerm;67283;50.960;13.856;2023-03-12T12:06:56;53.75;37.00;71.01;;
78074;Laerm;67283;50.960;13.856;2023-03-12T12:09:27;56.38;37.04;72.45;;
78074;Laerm;67283;50.960;13.856;2023-03-12T12:12:05;60.34;36.81;78.29;;
78074;Laerm;67283;50.960;13.856;2023-03-12T12:14:47;59.08;37.90;71.48;;
78074;Laerm;67283;50.960;13.856;2023-03-12T12:17:24;57.61;37.05;72.19;;
78074;Laerm;67283;50.960;13.856;2023-03-12T12:19:59;59.03;38.71;73.37;;
78074;Laerm;67283;50.960;13.856;2023-03-12T12:22:35;57.67;37.16;71.48;;
78074;Laerm;67283;50.960;13.856;2023-03-12T12:25:18;58.64;36.70;71.39;;
78074;Laerm;67283;50.960;13.856;2023-03-12T12:27:50;61.83;37.62;73.67;;
78074;Laerm;67283;50.960;13.856;2023-03-12T12:30:25;61.43;37.18;72.42;;
78074;Laerm;67283;50.960;13.856;2023-03-12T12:32:59;58.49;37.59;72.49;;
78074;Laerm;67283;50.960;13.856;2023-03-12T12:35:32;56.01;37.12;70.87;;
78074;Laerm;67283;50.960;13.856;2023-03-12T12:38:02;60.37;38.76;71.81;;
78074;Laerm;67283;50.960;13.856;2023-03-12T12:40:34;63.17;37.27;85.79;;
78074;Laerm;67283;50.960;13.856;2023-03-12T12:43:19;57.62;37.24;71.27;;
78074;Laerm;67283;50.960;13.856;2023-03-12T12:45:55;61.34;37.86;73.14;;
78074;Laerm;67283;50.960;13.856;2023-03-12T12:48:26;61.09;39.01;73.16;;
78074;Laerm;67283;50.960;13.856;2023-03-12T12:50:55;57.12;37.33;70.19;;
78074;Laerm;67283;50.960;13.856;2023-03-12T12:53:25;59.15;37.57;71.16;;
78074;Laerm;67283;50.960;13.856;2023-03-12T12:55:57;59.38;38.17;72.30;;
78074;Laerm;67283;50.960;13.856;2023-03-12T12:58:39;57.97;37.34;71.50;;
78074;Laerm;67283;50.960;13.856;2023-03-12T13:01:13;59.51;37.77;71.52;;
78074;Laerm;67283;50.960;13.856;2023-03-12T13:03:42;59.51;37.77;71.52;;
78074;Laerm;67283;50.960;13.856;2023-03-12T13:06:11;57.81;37.51;71.19;;
78074;Laerm;67283;50.960;13.856;2023-03-12T13:08:57;58.43;38.02;71.53;;
78074;Laerm;67283;50.960;13.856;2023-03-12T13:11:26;61.21;36.96;71.93;;
78074;Laerm;67283;50.960;13.856;2023-03-12T13:16:41;58.12;37.23;71.06;;
78074;Laerm;67283;50.960;13.856;2023-03-12T13:22:04;58.40;37.49;70.71;;
78074;Laerm;67283;50.960;13.856;2023-03-12T13:24:37;57.06;36.96;70.22;;
78074;Laerm;67283;50.960;13.856;2023-03-12T13:27:12;58.43;39.09;71.30;;
78074;Laerm;67283;50.960;13.856;2023-03-12T13:29:44;59.75;37.08;73.37;;
78074;Laerm;67283;50.960;13.856;2023-03-12T13:35:18;59.96;37.70;75.30;;
78074;Laerm;67283;50.960;13.856;2023-03-12T13:38:02;58.19;37.49;73.90;;
78074;Laerm;67283;50.960;13.856;2023-03-12T13:40:37;62.86;39.24;73.21;;
78074;Laerm;67283;50.960;13.856;2023-03-12T13:43:09;55.50;36.98;70.48;;
78074;Laerm;67283;50.960;13.856;2023-03-12T13:45:53;61.04;37.70;74.18;;
78074;Laerm;67283;50.960;13.856;2023-03-12T13:48:22;55.53;37.05;72.18;;
78074;Laerm;67283;50.960;13.856;2023-03-12T13:50:54;58.18;38.25;72.63;;
78074;Laerm;67283;50.960;13.856;2023-03-12T13:53:24;58.74;37.31;72.19;;
78074;Laerm;67283;50.960;13.856;2023-03-12T13:56:00;59.56;38.01;72.86;;
78074;Laerm;67283;50.960;13.856;2023-03-12T13:58:30;60.34;38.14;71.03;;